W4CPD Weather Reports


time (UTC)temp
F
wind
direction
speed
knots
gust
knots
rain 1hr
in
rain 24hr
in
rain mn
in
humidity
%
barometer
mb
20211017170018 68 24 6.1 13.9 0.00 0.00 0.00 48 1022.9
20211017165517 67 352 5.2 14.8 0.00 0.00 0.00 49 1022.9
20211017165015 67 17 8.7 14.8 0.00 0.00 0.00 46 1023.0
20211017164518 67 5 7.8 13.0 0.00 0.00 0.00 46 1023.2
20211017164015 67 340 7.0 13.0 0.00 0.00 0.00 47 1023.2
20211017163517 67 341 7.8 13.9 0.00 0.00 0.00 49 1023.3
20211017163028 66 327 6.1 13.9 0.00 0.00 0.00 49 1023.2
20211017162515 66 21 5.2 13.0 0.00 0.00 0.00 50 1023.3
20211017162034 66 61 4.3 13.0 0.00 0.00 0.00 54 1023.4
20211017161524 65 51 4.3 16.5 0.00 0.00 0.00 52 1023.4
20211017161016 65 45 4.3 16.5 0.00 0.00 0.00 52 1023.4
20211017160518 65 14 8.7 16.5 0.00 0.00 0.00 49 1023.5
20211017160031 65 360 6.1 19.1 0.00 0.00 0.00 52 1023.6
20211017155517 65 5 7.0 19.1 0.00 0.00 0.00 50 1023.7
20211017155019 64 10 6.1 13.9 0.00 0.00 0.00 50 1023.6
20211017154517 64 5 7.0 18.2 0.00 0.00 0.00 52 1023.7
20211017154015 64 360 7.0 18.2 0.00 0.00 0.00 53 1023.5
20211017153517 64 61 7.0 17.4 0.00 0.00 0.00 53 1023.5
20211017153026 63 323 6.1 17.4 0.00 0.00 0.00 53 1023.5
20211017152517 63 28 7.0 17.4 0.00 0.00 0.00 54 1023.5
20211017152016 63 76 9.6 16.5 0.00 0.00 0.00 55 1023.5
20211017151546 63 43 3.5 14.8 0.00 0.00 0.00 58 1023.5
20211017151018 62 52 6.1 15.6 0.00 0.00 0.00 57 1023.6
20211017150515 62 17 7.0 19.1 0.00 0.00 0.00 56 1023.7
20211017150059 62 72 6.1 19.1 0.00 0.00 0.00 56 1023.7
20211017145515 62 32 8.7 19.1 0.00 0.00 0.00 57 1023.7
20211017145014 61 53 7.0 18.2 0.00 0.00 0.00 58 1023.6
20211017144540 61 338 8.7 17.4 0.00 0.00 0.00 57 1023.7
20211017144020 60 42 7.0 14.8 0.00 0.00 0.00 63 1023.7
20211017143516 60 346 6.1 14.8 0.00 0.00 0.00 64 1023.7
20211017143018 59 343 5.2 14.8 0.00 0.00 0.00 66 1023.8
20211017142516 59 360 5.2 13.0 0.00 0.00 0.00 65 1023.7
20211017142015 59 5 7.8 13.9 0.00 0.00 0.00 65 1023.8
20211017141535 58 102 7.8 13.9 0.00 0.00 0.00 65 1023.8
20211017141015 58 40 6.1 13.9 0.00 0.00 0.00 68 1023.8
20211017140516 57 34 6.1 11.3 0.00 0.00 0.00 68 1023.6
20211017140036 57 36 5.2 11.3 0.00 0.00 0.00 70 1023.7
20211017135518 56 352 5.2 11.3 0.00 0.00 0.00 71 1023.7
20211017135015 55 349 5.2 11.3 0.00 0.00 0.00 73 1023.6
20211017134538 55 40 3.5 10.4 0.00 0.00 0.00 75 1023.5
20211017134015 54 13 4.3 12.2 0.00 0.00 0.00 76 1023.4
20211017133515 54 5 5.2 12.2 0.00 0.00 0.00 76 1023.4
20211017133030 54 5 6.1 13.0 0.00 0.00 0.00 76 1023.4
20211017132512 54 349 6.1 13.0 0.00 0.00 0.00 76 1023.2
20211017132037 54 352 6.1 12.2 0.00 0.00 0.00 76 1023.2
20211017131512 53 5 7.0 13.9 0.00 0.00 0.00 76 1023.2
20211017131017 53 12 6.1 13.9 0.00 0.00 0.00 77 1023.2
20211017130513 53 54 6.1 13.9 0.00 0.00 0.00 77 1023.1
20211017130016 53 343 6.1 12.2 0.00 0.00 0.00 77 1023.2
20211017125514 53 360 6.1 11.3 0.00 0.00 0.00 77 1023.1
20211017125013 53 5 7.0 11.3 0.00 0.00 0.00 77 1023.1
20211017124512 52 28 6.1 11.3 0.00 0.00 0.00 77 1023.0
20211017124013 52 5 5.2 10.4 0.00 0.00 0.00 78 1023.0
20211017123534 52 5 4.3 9.6 0.00 0.00 0.00 79 1022.9
20211017123048 51 24 4.3 8.7 0.00 0.00 0.00 79 1022.9
20211017122512 51 15 4.3 8.7 0.00 0.00 0.00 80 1022.9
20211017122012 51 360 3.5 9.6 0.00 0.00 0.00 80 1022.8
20211017121512 51 28 4.3 9.6 0.00 0.00 0.00 80 1022.9
20211017121013 51 330 4.3 9.6 0.00 0.00 0.00 80 1022.7
20211017120519 51 332 3.5 9.6 0.00 0.00 0.00 81 1022.8
20211017120031 51 11 3.5 9.6 0.00 0.00 0.00 81 1022.7
20211017115514 51 28 4.3 9.6 0.00 0.00 0.00 81 1022.7
20211017115016 51 340 3.5 9.6 0.00 0.00 0.00 81 1022.8
20211017114523 51 342 4.3 9.6 0.00 0.00 0.00 80 1022.7
20211017114017 51 348 4.3 8.7 0.00 0.00 0.00 80 1022.8
20211017113514 51 360 3.5 8.7 0.00 0.00 0.00 80 1022.8
20211017113029 51 352 3.5 9.6 0.00 0.00 0.00 80 1022.7
20211017112520 51 337 2.6 9.6 0.00 0.00 0.00 80 1022.6
20211017112020 52 346 3.5 9.6 0.00 0.00 0.00 79 1022.6
20211017111520 52 347 2.6 9.6 0.00 0.00 0.00 79 1022.5
20211017111013 52 5 3.5 7.8 0.00 0.00 0.00 79 1022.3
20211017110516 52 345 3.5 8.7 0.00 0.00 0.00 78 1022.4
20211017110027 52 9 2.6 9.6 0.00 0.00 0.00 78 1022.3
20211017105515 52 328 5.2 9.6 0.00 0.00 0.00 78 1022.2
20211017105013 52 13 4.3 8.7 0.00 0.00 0.00 79 1022.2
20211017104517 52 337 3.5 8.7 0.00 0.00 0.00 78 1022.1
20211017104013 52 352 3.5 8.7 0.00 0.00 0.00 78 1022.0
20211017103510 52 36 4.3 8.7 0.00 0.00 0.00 78 1022.0
20211017103035 52 5 3.5 8.7 0.00 0.00 0.00 78 1022.1
20211017102515 52 334 4.3 8.7 0.00 0.00 0.00 78 1022.0
20211017102034 52 26 4.3 8.7 0.00 0.00 0.00 78 1022.0
20211017101526 52 352 3.5 8.7 0.00 0.00 0.00 79 1022.0
20211017101017 52 323 3.5 8.7 0.00 0.00 0.00 78 1021.9
20211017100519 52 317 4.3 8.7 0.00 0.00 0.00 78 1021.9
20211017100046 52 335 5.2 9.6 0.00 0.00 0.00 78 1021.7
20211017095516 52 343 3.5 9.6 0.00 0.00 0.00 79 1021.9
20211017095016 52 26 3.5 8.7 0.00 0.00 0.00 79 1021.9
20211017094530 52 333 2.6 7.8 0.00 0.00 0.00 79 1021.8
20211017094016 52 343 3.5 7.8 0.00 0.00 0.00 79 1021.8
20211017093516 52 17 2.6 7.8 0.00 0.00 0.00 79 1021.7
20211017093017 52 33 3.5 8.7 0.00 0.00 0.00 79 1021.9
20211017092512 52 19 3.5 8.7 0.00 0.00 0.00 79 1021.9
20211017092021 52 9 3.5 8.7 0.00 0.00 0.00 78 1021.9
20211017091518 52 28 4.3 8.7 0.00 0.00 0.00 78 1021.8
20211017091013 52 15 3.5 8.7 0.00 0.00 0.00 79 1021.8
20211017090514 52 344 4.3 7.8 0.00 0.00 0.00 79 1021.8
20211017090016 52 350 2.6 8.7 0.00 0.00 0.00 80 1021.7
20211017085519 52 360 3.5 9.6 0.00 0.00 0.00 80 1021.6
20211017085017 52 352 3.5 9.6 0.00 0.00 0.00 80 1021.6
20211017084607 52 360 4.3 9.6 0.00 0.00 0.00 80 1021.6
20211017084014 52 325 4.3 7.8 0.00 0.00 0.00 80 1021.6
20211017083521 52 22 4.3 7.8 0.00 0.00 0.00 80 1021.5
20211017083025 52 352 2.6 8.7 0.00 0.00 0.00 80 1021.5
20211017082513 52 5 3.5 8.7 0.00 0.00 0.00 80 1021.4
20211017082019 52 17 2.6 7.8 0.00 0.00 0.00 79 1021.3
20211017081537 52 352 2.6 7.8 0.00 0.00 0.00 80 1021.5
20211017081036 52 360 3.5 7.8 0.00 0.00 0.00 79 1021.4
20211017080517 52 352 3.5 7.8 0.00 0.00 0.00 79 1021.5
20211017080028 52 328 4.3 8.7 0.00 0.00 0.00 79 1021.4
20211017075512 52 5 4.3 8.7 0.00 0.00 0.00 80 1021.4
20211017075016 52 5 3.5 7.8 0.00 0.00 0.00 80 1021.4
20211017074515 52 12 2.6 7.8 0.00 0.00 0.00 80 1021.4
20211017074025 52 352 3.5 7.8 0.00 0.00 0.00 80 1021.4
20211017073514 53 32 3.5 9.6 0.00 0.00 0.00 80 1021.4
20211017073026 53 34 2.6 9.6 0.00 0.00 0.00 80 1021.4
20211017072515 53 28 3.5 9.6 0.00 0.00 0.00 80 1021.4
20211017072013 53 15 3.5 7.0 0.00 0.00 0.00 80 1021.5
20211017071516 53 360 2.6 7.8 0.00 0.00 0.00 80 1021.5
20211017071031 53 360 2.6 7.8 0.00 0.00 0.00 80 1021.7
20211017070513 53 5 3.5 7.8 0.00 0.00 0.00 80 1021.6
20211017070040 53 15 1.7 7.0 0.00 0.00 0.00 80 1021.5
20211017065517 53 38 2.6 7.0 0.00 0.00 0.00 80 1021.6
20211017065015 53 346 3.5 7.0 0.00 0.00 0.00 79 1021.7
20211017064538 54 23 2.6 7.0 0.00 0.00 0.00 79 1021.6
20211017064019 54 352 2.6 6.1 0.00 0.00 0.00 79 1021.6
20211017063517 54 344 2.6 6.1 0.00 0.00 0.00 79 1021.7
20211017063019 54 343 2.6 6.1 0.00 0.00 0.00 78 1021.6
20211017062513 54 345 1.7 6.1 0.00 0.00 0.00 78 1021.7
20211017062017 54 344 2.6 7.8 0.00 0.00 0.00 78 1021.7
20211017061527 54 360 3.5 9.6 0.00 0.00 0.00 78 1021.7
20211017061014 55 5 3.5 9.6 0.00 0.00 0.00 77 1021.7
20211017060524 55 5 2.6 7.8 0.00 0.00 0.00 77 1021.8
20211017060018 55 11 2.6 7.8 0.00 0.00 0.00 76 1021.7
20211017055516 55 11 4.3 8.7 0.00 0.00 0.00 76 1021.7
20211017055016 55 352 4.3 8.7 0.00 0.00 0.00 75 1021.8
20211017054523 55 338 2.6 7.8 0.00 0.00 0.00 75 1021.7
20211017054013 56 11 3.5 9.6 0.00 0.00 0.00 76 1021.7
20211017053514 56 15 4.3 9.6 0.00 0.00 0.00 74 1021.8
20211017053043 56 5 4.3 10.4 0.00 0.00 0.00 74 1021.8
20211017052518 56 42 4.3 10.4 0.00 0.00 0.00 74 1021.8
20211017052013 56 9 3.5 10.4 0.00 0.00 0.00 74 1021.9
20211017051529 56 325 3.5 9.6 0.00 0.00 0.00 74 1021.9
20211017051015 56 345 4.3 9.6 0.00 0.00 0.00 73 1021.9
20211017050517 56 13 5.2 9.6 0.00 0.00 0.00 73 1022.0
20211017050019 57 21 3.5 11.3 0.00 0.00 0.00 74 1022.0
20211017045513 57 323 3.5 11.3 0.00 0.00 0.00 74 1021.9
20211017045014 57 360 3.5 8.7 0.00 0.00 0.00 73 1021.9
20211017044544 57 349 3.5 8.7 0.00 0.00 0.00 73 1021.9
20211017044015 57 351 3.5 10.4 0.00 0.00 0.00 73 1021.9
20211017043514 57 349 2.6 10.4 0.00 0.00 0.00 72 1021.9
20211017043019 58 337 4.3 11.3 0.00 0.00 0.00 72 1021.9
20211017042519 58 352 3.5 11.3 0.00 0.00 0.00 71 1021.9
20211017042018 58 341 5.2 13.0 0.00 0.00 0.00 71 1021.9
20211017041533 58 315 5.2 13.0 0.00 0.00 0.00 71 1021.9
20211017041018 58 5 4.3 13.0 0.00 0.00 0.00 71 1021.9
20211017040516 58 336 5.2 13.0 0.00 0.00 0.00 70 1022.0
20211017040019 58 9 5.2 13.9 0.00 0.00 0.00 70 1022.0
20211017035516 59 347 5.2 13.9 0.00 0.00 0.00 70 1021.9
20211017035014 59 328 5.2 13.9 0.00 0.00 0.00 70 1021.9
20211017034516 59 352 4.3 11.3 0.00 0.00 0.00 70 1021.7
20211017034017 59 352 5.2 12.2 0.00 0.00 0.00 70 1021.7
20211017033516 59 360 6.1 12.2 0.00 0.00 0.00 71 1021.6
20211017033040 59 345 5.2 12.2 0.00 0.00 0.00 71 1021.6
20211017032515 59 310 4.3 11.3 0.00 0.00 0.00 71 1021.5
20211017032038 59 313 5.2 10.4 0.00 0.00 0.00 71 1021.4
20211017031527 59 333 4.3 10.4 0.00 0.00 0.00 71 1021.4
20211017031013 59 338 3.5 10.4 0.00 0.00 0.00 70 1021.4
20211017030521 59 304 4.3 10.4 0.00 0.00 0.00 70 1021.4
20211017030029 59 346 3.5 10.4 0.00 0.00 0.00 70 1021.5
20211017025517 59 336 3.5 9.6 0.00 0.00 0.00 70 1021.3
20211017025016 59 5 4.3 8.7 0.00 0.00 0.00 70 1021.2
20211017024524 59 329 3.5 8.7 0.00 0.00 0.00 70 1021.3
20211017024013 60 344 3.5 8.7 0.00 0.00 0.00 70 1021.3
20211017023514 60 32 3.5 8.7 0.00 0.00 0.00 70 1021.2
20211017023029 60 352 3.5 7.8 0.00 0.00 0.00 70 1021.1
20211017022514 60 342 3.5 8.7 0.00 0.00 0.00 70 1021.0
20211017022014 60 329 3.5 9.6 0.00 0.00 0.00 70 1020.9
20211017021537 60 349 3.5 9.6 0.00 0.00 0.00 69 1020.8
20211017021013 60 349 5.2 9.6 0.00 0.00 0.00 69 1020.8
20211017020521 61 319 4.3 8.7 0.00 0.00 0.00 68 1020.7
20211017020029 61 316 3.5 8.7 0.00 0.00 0.00 68 1020.6
20211017015514 61 341 3.5 8.7 0.00 0.00 0.00 68 1020.6
20211017015020 61 352 3.5 9.6 0.00 0.00 0.00 67 1020.5
20211017014521 61 323 3.5 9.6 0.00 0.00 0.00 67 1020.4
20211017014016 62 352 3.5 10.4 0.00 0.00 0.00 66 1020.4
20211017013513 62 331 4.3 11.3 0.00 0.00 0.00 65 1020.4
20211017013014 62 25 3.5 11.3 0.00 0.00 0.00 65 1020.3
20211017012514 62 331 4.3 10.4 0.00 0.00 0.00 64 1020.3
20211017012014 63 340 5.2 12.2 0.00 0.00 0.00 63 1020.3
20211017011538 63 26 7.0 12.2 0.00 0.00 0.00 63 1020.3
20211017011014 63 5 7.0 12.2 0.00 0.00 0.00 64 1020.3
20211017010513 63 15 5.2 10.4 0.00 0.00 0.00 64 1020.1
20211017010043 63 339 4.3 10.4 0.00 0.00 0.00 64 1020.0
20211017005517 63 344 6.1 11.3 0.00 0.00 0.00 64 1020.0
20211017005016 63 331 6.1 11.3 0.00 0.00 0.00 63 1019.9
20211017004521 63 350 5.2 12.2 0.00 0.00 0.00 64 1019.9
20211017004035 63 5 3.5 12.2 0.00 0.00 0.00 64 1019.8
20211017003517 64 352 4.3 10.4 0.00 0.00 0.00 63 1019.7
20211017003045 64 342 4.3 8.7 0.00 0.00 0.00 63 1019.8
20211017002517 64 9 5.2 9.6 0.00 0.00 0.00 62 1019.7
20211017002016 64 308 4.3 11.3 0.00 0.00 0.00 61 1019.6
20211017001521 65 327 4.3 11.3 0.00 0.00 0.00 60 1019.5
20211017001016 65 318 6.1 13.0 0.00 0.00 0.00 60 1019.5
20211017000516 65 338 5.2 13.0 0.00 0.00 0.00 59 1019.5
20211017000018 65 14 6.1 12.2 0.00 0.00 0.00 59 1019.4
20211016235513 65 53 5.2 12.2 0.00 0.00 0.00 59 1019.2
20211016235017 66 315 7.0 12.2 0.00 0.00 0.00 58 1019.2
20211016234515 66 315 6.1 12.2 0.00 0.00 0.00 58 1019.2
20211016234017 66 338 6.1 12.2 0.00 0.00 0.00 58 1019.1
20211016233517 66 337 6.1 12.2 0.00 0.00 0.00 57 1019.0
20211016233028 66 5 6.1 12.2 0.00 0.00 0.00 57 1018.8
20211016232516 67 332 7.0 12.2 0.00 0.00 0.00 57 1018.9
20211016232017 67 5 4.3 13.9 0.00 0.00 0.00 57 1018.7
20211016231515 67 331 4.3 13.9 0.00 0.00 0.00 58 1018.6
20211016231027 67 327 7.0 13.9 0.00 0.00 0.00 57 1018.5
20211016230522 68 352 5.2 15.6 0.00 0.00 0.00 58 1018.4
20211016230020 68 352 6.1 15.6 0.00 0.00 0.00 59 1018.2
20211016225518 68 360 7.0 14.8 0.00 0.00 0.00 60 1018.1
20211016225016 69 352 6.1 12.2 0.00 0.00 0.00 61 1018.1
20211016224520 69 321 5.2 13.0 0.00 0.00 0.00 62 1018.0
20211016224016 69 322 4.3 14.8 0.00 0.00 0.00 61 1017.9
20211016223516 69 17 5.2 14.8 0.00 0.00 0.00 60 1017.8
20211016223031 69 339 6.1 13.9 0.00 0.00 0.00 59 1017.8
20211016222520 70 349 4.3 13.0 0.00 0.00 0.00 60 1017.5
20211016222013 70 326 5.2 13.0 0.00 0.00 0.00 59 1017.6
20211016221519 70 352 6.1 14.8 0.00 0.00 0.00 58 1017.6
20211016221013 70 23 7.0 16.5 0.00 0.00 0.00 58 1017.6
20211016220516 70 352 7.0 16.5 0.00 0.00 0.00 57 1017.6
20211016220021 71 337 8.7 16.5 0.00 0.00 0.00 57 1017.4
20211016215520 71 295 7.0 14.8 0.00 0.00 0.00 57 1017.5
20211016215014 71 315 7.0 14.8 0.00 0.00 0.00 58 1017.5
20211016214532 71 41 8.7 14.8 0.00 0.00 0.00 58 1017.6
20211016214018 71 308 7.0 15.6 0.00 0.00 0.00 59 1017.5
20211016213513 71 342 5.2 15.6 0.00 0.00 0.00 59 1017.5
20211016213031 71 33 7.8 15.6 0.00 0.00 0.00 57 1017.4
20211016212525 71 313 7.8 15.6 0.00 0.00 0.00 57 1017.3
20211016212022 71 5 7.0 15.6 0.00 0.00 0.00 57 1017.5
20211016211518 71 12 6.1 15.6 0.00 0.00 0.00 57 1017.3
20211016211016 72 360 7.0 18.2 0.00 0.00 0.00 56 1017.3
20211016210516 72 349 7.0 18.2 0.00 0.00 0.00 55 1017.2
20211016210055 72 15 7.0 16.5 0.00 0.00 0.00 58 1017.2
20211016205516 72 344 7.0 16.5 0.00 0.00 0.00 58 1017.4
20211016205013 72 336 7.8 17.4 0.00 0.00 0.00 59 1017.5
20211016204518 73 313 7.0 17.4 0.00 0.00 0.00 60 1017.4
20211016204013 73 16 7.0 12.2 0.00 0.00 0.00 60 1017.4
20211016203514 73 319 4.3 13.9 0.00 0.00 0.00 58 1017.4
20211016203034 72 352 6.1 17.4 0.00 0.00 0.00 59 1017.5
20211016202513 72 352 7.8 17.4 0.00 0.00 0.00 59 1017.4
20211016202016 72 287 6.1 16.5 0.00 0.00 0.00 62 1017.4
20211016201520 73 349 7.8 15.6 0.00 0.00 0.00 64 1017.4
20211016201016 73 330 6.1 13.9 0.00 0.00 0.00 65 1017.3
20211016200521 73 341 5.2 15.6 0.00 0.00 0.00 67 1017.3
20211016200025 73 328 7.0 18.2 0.00 0.00 0.00 65 1017.3
20211016195514 72 349 6.1 18.2 0.00 0.00 0.00 66 1017.2
20211016195016 73 333 8.7 14.8 0.00 0.00 0.00 66 1017.3
20211016194535 73 304 7.0 14.8 0.00 0.00 0.00 65 1017.2
20211016194016 73 5 8.7 14.8 0.00 0.00 0.00 64 1017.3
20211016193517 74 333 6.1 13.9 0.00 0.00 0.00 64 1017.3
20211016193025 74 352 7.8 15.6 0.00 0.00 0.00 61 1017.2
20211016192520 73 10 5.2 15.6 0.00 0.00 0.00 63 1017.2
20211016192013 73 321 7.8 16.5 0.00 0.00 0.00 59 1017.2
20211016191541 73 27 7.8 16.5 0.00 0.00 0.00 61 1017.2
20211016191020 74 350 8.7 16.5 0.00 0.00 0.00 61 1017.1
20211016190530 74 352 6.1 12.2 0.00 0.00 0.00 62 1017.2
20211016190055 73 5 7.0 15.6 0.00 0.00 0.00 63 1017.2
20211016185520 73 13 8.7 17.4 0.00 0.00 0.00 64 1017.3
20211016185021 73 325 8.7 17.4 0.00 0.00 0.00 64 1017.5
20211016184516 73 322 9.6 18.2 0.00 0.00 0.00 64 1017.3
20211016184016 73 352 10.4 18.2 0.00 0.00 0.00 63 1017.6
20211016183517 73 328 10.4 18.2 0.00 0.00 0.00 63 1017.5
20211016183016 73 336 8.7 17.4 0.00 0.00 0.00 68 1017.5
20211016182534 73 360 7.0 17.4 0.00 0.00 0.00 68 1017.6
20211016182014 72 292 6.1 17.4 0.00 0.00 0.00 68 1017.6
20211016181549 72 345 7.0 18.2 0.00 0.00 0.00 67 1017.6
20211016181016 72 327 8.7 18.2 0.00 0.00 0.00 68 1017.7
20211016180531 72 360 10.4 18.2 0.00 0.00 0.00 68 1017.7
20211016180026 72 331 7.0 17.4 0.00 0.00 0.00 71 1017.6
20211016175513 72 27 10.4 17.4 0.00 0.00 0.00 70 1017.8
20211016175017 72 352 7.8 17.4 0.00 0.00 0.00 72 1017.8
20211016174526 71 352 8.7 15.6 0.00 0.00 0.00 74 1017.8
20211016174013 71 16 8.7 15.6 0.00 0.00 0.00 74 1017.9
20211016173516 71 352 7.8 16.5 0.00 0.00 0.00 74 1017.9
20211016173051 71 17 7.8 16.5 0.00 0.00 0.00 76 1018.1
20211016172520 70 352 8.7 17.4 0.00 0.00 0.00 76 1018.2
20211016172014 70 345 10.4 17.4 0.00 0.00 0.00 76 1018.2
20211016171545 70 344 7.0 14.8 0.00 0.00 0.00 78 1018.2
20211016171017 70 352 7.8 17.4 0.00 0.00 0.00 77 1018.3
20211016170514 70 34 6.1 17.4 0.00 0.00 0.00 79 1018.4